Main page
METAR-TAF:

METAR-TAF

Airports :

Trieste / Ronchi dei Legionari, Italy

Trieste – Friuli Venezia Giulia Airport

latitude: 45-49N, longitude: 013-29E, elevation: 12 m

Current weather observation

The report was made 35 minutes ago, at 03:50 UTC
Wind 1 kt from variable directions
Temperature 4°C
Humidity 93%
Pressure 1018 hPa
Visibility 10 km or more

METAR: LIPQ 180350Z AUTO VRB01KT 9999 FEW075/// SCT090/// BKN240/// 04/03 Q1018

Time: 05:25 (04:25 UTC)

Forecast

The report was made 5 hours and 25 minutes ago, at 23:00 UTC
Forecast valid from 18 at 00 UTC to 18 at 24 UTC
Wind 5 kt from variable directions
Visibility 10 km or more
Few clouds at a height of 6000 ft

TAF: LIPQ 172300Z 1800/1824 VRB05KT 9999 FEW060

Weather observations and forecasts of more than 4000 airports (METAR and TAF reports).

The available stations are represented by yellow and red dots on the map.

Hover mouse over dot to see the name of the station.

Then click to see weather observations and forecasts.

To change the map : click on the green buttons with a black cross to zoom in, on the green button with a dash to zoom out, or on the green arrows for adjacent maps.


METAR-TAF: